Time;durP1;ratioP1;P1;durP2;ratioP2;P2;SDS_P1;SDS_P2;PMS_P1;PMS_P2;Temp;Humidity;BMP_temperature;BMP_pressure;BME280_temperature;BME280_humidity;BME280_pressure;Samples;Min_cycle;Max_cycle;Signal;HPM_P1;HPM_P2
2024/01/05 00:01:01;;;;;;;8.88;5.45;;;;;;;-2.03;57.63;100510.75;4941121;28;20074;-69
2024/01/05 00:03:31;;;;;;;14.30;6.45;;;;;;;-1.95;57.31;100511.69;4953174;28;20196;-69
2024/01/05 00:06:07;;;;;;;14.90;6.03;;;;;;;-1.65;56.67;100512.69;4960964;28;20073;-71
2024/01/05 00:08:44;;;;;;;13.98;5.78;;;;;;;-1.73;56.95;100516.91;4970146;28;20040;-70
2024/01/05 00:11:44;;;;;;;12.05;5.13;;;;;;;-1.92;57.16;100504.00;4954828;28;20454;-70
2024/01/05 00:14:19;;;;;;;9.68;5.30;;;;;;;-1.75;57.04;100500.69;4939531;28;20112;-70
2024/01/05 00:16:55;;;;;;;10.10;3.95;;;;;;;-1.85;56.87;100495.50;4956987;28;21166;-70
2024/01/05 00:19:43;;;;;;;9.45;4.55;;;;;;;-1.89;57.15;100488.66;4948706;28;20061;-69
2024/01/05 00:22:26;;;;;;;15.75;6.10;;;;;;;-1.85;57.01;100485.25;4958794;28;20023;-72
2024/01/05 00:25:21;;;;;;;12.15;5.70;;;;;;;-1.94;57.62;100479.22;4946497;28;20138;-71
2024/01/05 00:27:50;;;;;;;11.90;5.13;;;;;;;-2.07;57.72;100475.72;4952061;28;20077;-71
2024/01/05 00:30:28;;;;;;;10.23;5.78;;;;;;;-1.90;57.18;100480.97;4971435;28;20053;-72
2024/01/05 00:33:02;;;;;;;11.88;6.25;;;;;;;-2.09;57.34;100480.00;4954589;28;20081;-72
2024/01/05 00:35:40;;;;;;;15.15;5.85;;;;;;;-2.09;57.83;100464.63;4953470;28;20066;-72
2024/01/05 00:38:05;;;;;;;16.88;6.00;;;;;;;-2.13;57.56;100468.03;4968805;28;20098;-73
2024/01/05 00:40:55;;;;;;;14.43;6.13;;;;;;;-2.14;57.79;100467.16;4951113;28;20154;-72
2024/01/05 00:43:43;;;;;;;10.13;5.03;;;;;;;-2.02;57.54;100456.16;4958127;28;20421;-71
2024/01/05 00:46:11;;;;;;;14.10;6.20;;;;;;;-2.02;57.37;100456.16;4954070;28;20660;-67
2024/01/05 00:48:57;;;;;;;10.80;4.72;;;;;;;-2.05;57.99;100456.13;4947099;28;20053;-70
2024/01/05 00:51:30;;;;;;;18.70;5.68;;;;;;;-1.99;57.36;100455.31;4939837;28;20050;-70
2024/01/05 00:54:11;;;;;;;13.88;5.97;;;;;;;-2.10;57.54;100447.56;4950954;28;20379;-71
2024/01/05 00:56:46;;;;;;;13.88;5.53;;;;;;;-2.16;57.99;100447.50;4967609;28;20508;-72
2024/01/05 00:59:24;;;;;;;13.48;6.47;;;;;;;-2.05;57.45;100440.75;4933613;28;20130;-73
2024/01/05 01:01:54;;;;;;;11.77;5.63;;;;;;;-2.07;57.88;100445.00;4943109;28;20091;-72
2024/01/05 01:04:27;;;;;;;11.35;5.32;;;;;;;-2.18;57.96;100436.41;4940110;28;20788;-72
2024/01/05 01:07:09;;;;;;;12.77;5.68;;;;;;;-2.25;58.05;100438.06;4968674;28;20046;-72
2024/01/05 01:09:47;;;;;;;12.10;5.28;;;;;;;-2.03;57.40;100431.38;4965587;28;20046;-72
2024/01/05 01:12:33;;;;;;;;;;;;;;;;;;;;;
2024/01/05 01:15:10;;;;;;;9.00;5.00;;;;;;;-1.93;57.57;100415.22;4962540;28;20043;-70
2024/01/05 01:17:47;;;;;;;14.63;6.43;;;;;;;-1.99;57.83;100424.56;4960978;28;20049;-71
2024/01/05 01:20:22;;;;;;;11.57;5.93;;;;;;;-1.89;57.35;100422.06;4957468;28;20329;-71
2024/01/05 01:22:55;;;;;;;10.15;5.82;;;;;;;-1.88;57.29;100413.50;4957562;28;20538;-75
2024/01/05 01:25:32;;;;;;;12.05;5.60;;;;;;;-1.70;57.10;100417.00;4961873;28;20545;-72
2024/01/05 01:28:02;;;;;;;14.48;6.82;;;;;;;-1.77;56.96;100420.41;4988014;28;20560;-69
2024/01/05 01:30:38;;;;;;;15.27;5.47;;;;;;;-1.80;56.84;100405.84;4972383;28;20072;-68
2024/01/05 01:33:23;;;;;;;13.40;5.65;;;;;;;-2.03;57.58;100409.16;4962444;28;20413;-73
2024/01/05 01:35:56;;;;;;;15.52;5.93;;;;;;;-2.08;57.72;100397.22;4958942;28;20509;-71
2024/01/05 01:38:38;;;;;;;12.95;6.20;;;;;;;-1.78;57.12;100393.03;4958488;28;20417;-73
2024/01/05 01:41:06;;;;;;;11.60;5.28;;;;;;;-2.15;57.87;100392.91;4967305;28;20068;-70
2024/01/05 01:43:55;;;;;;;12.23;5.72;;;;;;;-2.01;57.77;100397.22;4958474;28;20034;-70
2024/01/05 01:46:26;;;;;;;12.77;5.95;;;;;;;-1.92;57.58;100404.09;4968421;28;20312;-67
2024/01/05 01:48:55;;;;;;;14.18;5.78;;;;;;;-2.10;57.79;100401.47;4953764;28;20034;-70
2024/01/05 01:51:32;;;;;;;13.48;5.22;;;;;;;-1.98;57.59;100386.13;4988749;28;20197;-68
2024/01/05 01:54:21;;;;;;;13.35;5.68;;;;;;;-2.09;58.06;100387.78;4954453;28;20120;-71
2024/01/05 01:56:50;;;;;;;11.60;6.25;;;;;;;-2.00;58.01;100385.28;4966503;28;20153;-70
2024/01/05 01:59:35;;;;;;;12.05;5.55;;;;;;;-2.05;58.13;100381.84;4952286;28;20117;-68
2024/01/05 02:02:14;;;;;;;18.48;6.82;;;;;;;-2.26;58.75;100380.91;4955487;28;20037;-72
2024/01/05 02:04:46;;;;;;;12.82;4.65;;;;;;;-2.44;59.04;100378.25;4953924;28;20070;-68
2024/01/05 02:07:27;;;;;;;10.60;5.32;;;;;;;-2.27;58.86;100374.09;4983524;28;20270;-70
2024/01/05 02:09:53;;;;;;;13.80;4.93;;;;;;;-2.16;58.90;100365.59;4956221;28;20053;-67
2024/01/05 02:12:29;;;;;;;11.90;5.65;;;;;;;-2.24;59.10;100371.53;4970354;28;20934;-68
2024/01/05 02:15:02;;;;;;;12.77;5.60;;;;;;;-2.36;59.28;100361.22;4945646;28;21209;-69
2024/01/05 02:17:36;;;;;;;15.30;5.28;;;;;;;-2.49;59.96;100357.75;4964315;28;20594;-69
2024/01/05 02:20:12;;;;;;;17.50;6.40;;;;;;;-2.49;60.23;100352.63;4968929;28;20050;-68
2024/01/05 02:23:05;;;;;;;13.40;6.18;;;;;;;-2.46;60.04;100362.88;4970942;28;20042;-68
2024/01/05 02:25:36;;;;;;;18.17;6.13;;;;;;;-2.57;60.20;100356.00;4970483;28;20293;-69
2024/01/05 02:28:07;;;;;;;18.02;7.07;;;;;;;-2.68;60.78;100346.53;4958815;28;21473;-69
2024/01/05 02:30:45;;;;;;;10.85;6.10;;;;;;;-2.65;60.90;100336.34;4964560;28;20060;-71
2024/01/05 02:33:15;;;;;;;20.45;6.93;;;;;;;-2.64;61.08;100343.16;4965608;28;20057;-72
2024/01/05 02:35:58;;;;;;;19.10;7.00;;;;;;;-2.69;61.37;100337.16;4959239;28;20130;-70
2024/01/05 02:38:28;;;;;;;17.67;7.07;;;;;;;-2.64;61.19;100326.97;4971677;28;20034;-71
2024/01/05 02:41:23;;;;;;;15.77;7.78;;;;;;;-2.66;61.59;100332.06;4947228;28;20042;-72
2024/01/05 02:43:58;;;;;;;14.70;5.63;;;;;;;-2.64;61.33;100326.97;4961794;28;20093;-73
2024/01/05 02:46:26;;;;;;;21.80;7.88;;;;;;;-2.80;62.17;100320.91;4960004;28;20687;-71
2024/01/05 02:49:20;;;;;;;22.42;8.32;;;;;;;-2.85;62.53;100313.19;4954105;28;20041;-72
2024/01/05 02:51:50;;;;;;;15.55;7.43;;;;;;;-2.84;62.48;100308.94;4975502;28;20042;-71
2024/01/05 02:54:24;;;;;;;18.73;7.93;;;;;;;-2.68;62.06;100295.38;4950435;28;20556;-71
2024/01/05 02:57:09;;;;;;;17.13;7.78;;;;;;;-2.67;62.21;100292.00;4982508;28;20037;-72
2024/01/05 03:00:04;;;;;;;;;;;;;;;;;;;;;
2024/01/05 03:02:45;;;;;;;21.10;7.78;;;;;;;-2.46;61.96;100269.91;4958376;28;20357;-71
2024/01/05 03:05:26;;;;;;;21.55;7.63;;;;;;;-2.79;62.80;100281.69;4964260;28;20638;-71
2024/01/05 03:07:54;;;;;;;16.95;7.68;;;;;;;-2.56;62.67;100283.50;4962638;28;20029;-71
2024/01/05 03:10:20;;;;;;;24.50;8.93;;;;;;;-2.77;62.73;100279.13;4960786;28;20050;-71
2024/01/05 03:13:03;;;;;;;16.67;7.95;;;;;;;-2.68;62.98;100269.78;4976269;28;20042;-71
2024/01/05 03:15:34;;;;;;;14.98;6.60;;;;;;;-2.93;63.69;100270.53;4952299;28;20030;-71
2024/01/05 03:18:03;;;;;;;19.80;7.28;;;;;;;-2.75;63.21;100273.19;4975226;28;20638;-70
2024/01/05 03:20:31;;;;;;;16.75;7.43;;;;;;;-2.67;62.67;100276.63;4959355;28;20608;-71
2024/01/05 03:23:04;;;;;;;21.60;6.88;;;;;;;-2.79;63.17;100276.56;4959363;28;20627;-71
2024/01/05 03:25:35;;;;;;;15.57;6.60;;;;;;;-3.11;63.86;100269.56;4946050;28;20049;-70
2024/01/05 03:28:11;;;;;;;13.90;6.07;;;;;;;-2.84;63.69;100270.56;4966392;28;20035;-71
2024/01/05 03:30:48;;;;;;;13.52;5.18;;;;;;;-2.70;62.95;100268.94;4974963;28;20539;-73
2024/01/05 03:33:24;;;;;;;12.75;5.72;;;;;;;-2.94;63.64;100261.13;4963535;28;20036;-69
2024/01/05 03:36:00;;;;;;;16.25;4.35;;;;;;;-2.80;63.35;100254.41;4962367;28;20604;-68
2024/01/05 03:38:36;;;;;;;13.77;6.60;;;;;;;-2.59;62.93;100257.91;4972044;28;20421;-69
2024/01/05 03:41:20;;;;;;;;;;;;;;;;;;;;;
2024/01/05 03:44:20;;;;;;;8.45;3.97;;;;;;;-2.83;63.21;100251.81;4977256;28;20467;-69
2024/01/05 03:47:12;;;;;;;10.75;4.28;;;;;;;-2.74;63.45;100243.31;4959520;28;20058;-68
2024/01/05 03:49:44;;;;;;;11.70;4.75;;;;;;;-2.58;63.18;100244.25;4950439;28;20046;-69
2024/01/05 03:52:13;;;;;;;12.90;4.68;;;;;;;-2.64;62.70;100235.72;4988332;28;20034;-68
2024/01/05 03:54:44;;;;;;;12.50;4.78;;;;;;;-2.94;63.82;100236.41;4967573;28;20168;-71
2024/01/05 03:57:22;;;;;;;;;;;;;;;;;;;;;
2024/01/05 04:00:21;;;;;;;8.98;4.50;;;;;;;-2.59;62.99;100219.53;4963704;28;20057;-73
2024/01/05 04:02:51;;;;;;;8.65;3.85;;;;;;;-2.74;63.35;100210.91;4969402;28;20057;-72
2024/01/05 04:05:36;;;;;;;;;;;;;;;;;;;;;
2024/01/05 04:08:40;;;;;;;10.27;4.47;;;;;;;-2.80;63.45;100202.38;4956332;28;20800;-69
2024/01/05 04:11:16;;;;;;;8.98;3.17;;;;;;;-2.62;63.01;100192.22;4948309;28;20579;-68
2024/01/05 04:13:44;;;;;;;9.02;3.67;;;;;;;-2.77;63.27;100190.47;4984977;28;20030;-69
2024/01/05 04:16:14;;;;;;;8.90;4.38;;;;;;;-2.75;63.38;100196.44;4946400;28;20041;-69
2024/01/05 04:18:51;;;;;;;6.75;2.65;;;;;;;-2.65;63.30;100198.19;4984370;28;20065;-69
2024/01/05 04:21:19;;;;;;;7.50;3.00;;;;;;;-2.55;62.79;100190.53;4954405;28;20054;-69
2024/01/05 04:23:50;;;;;;;7.97;3.38;;;;;;;-2.45;62.50;100184.59;4955697;28;20062;-69
2024/01/05 04:26:37;;;;;;;9.77;4.18;;;;;;;-2.37;62.38;100180.34;4929445;28;20054;-69
2024/01/05 04:29:08;;;;;;;7.45;3.05;;;;;;;-2.57;62.58;100175.19;4936989;28;20039;-69
2024/01/05 04:31:40;;;;;;;8.00;3.08;;;;;;;-2.70;63.09;100173.44;4944700;28;20030;-69
2024/01/05 04:34:31;;;;;;;9.30;2.78;;;;;;;-2.66;63.11;100178.56;4955154;28;20045;-69
2024/01/05 04:36:59;;;;;;;5.47;3.17;;;;;;;-2.71;62.91;100169.19;4964500;28;20034;-70
2024/01/05 04:39:40;;;;;;;7.30;3.40;;;;;;;-2.58;62.75;100177.72;4949762;28;20541;-69
2024/01/05 04:42:15;;;;;;;7.13;3.33;;;;;;;-2.66;62.95;100165.75;4963274;28;20116;-70
2024/01/05 04:44:54;;;;;;;;;;;;;;;;;;;;;
2024/01/05 04:47:23;;;;;;;7.25;3.72;;;;;;;-2.53;62.63;100150.47;4952389;28;20133;-70
2024/01/05 04:49:50;;;;;;;4.28;2.47;;;;;;;-2.77;63.46;100143.56;4970601;28;20049;-72
2024/01/05 04:52:21;;;;;;;5.80;3.38;;;;;;;-2.92;63.57;100157.16;4976727;28;20553;-72
2024/01/05 04:54:57;;;;;;;8.00;3.50;;;;;;;-2.74;62.97;100139.28;4983632;28;20095;-72
2024/01/05 04:57:35;;;;;;;4.40;1.92;;;;;;;-2.74;63.29;100148.69;4961557;28;21265;-65
2024/01/05 05:00:03;;;;;;;6.07;3.13;;;;;;;-2.74;63.45;100146.13;4927104;28;20132;-66
2024/01/05 05:02:46;;;;;;;;;;;;;;;;;;;;;
2024/01/05 05:05:23;;;;;;;6.30;3.13;;;;;;;-2.83;63.66;100136.72;4979967;28;20042;-66
2024/01/05 05:07:53;;;;;;;9.38;3.00;;;;;;;-2.62;63.56;100143.63;4958984;28;20041;-72
2024/01/05 05:10:25;;;;;;;8.35;3.50;;;;;;;-2.65;63.30;100131.69;4948912;28;20304;-71
2024/01/05 05:13:10;;;;;;;9.95;3.05;;;;;;;-2.64;63.53;100128.25;4974354;28;20607;-65
2024/01/05 05:15:39;;;;;;;8.65;3.47;;;;;;;-2.48;63.39;100130.84;4956522;28;20049;-67
2024/01/05 05:18:07;;;;;;;11.20;3.53;;;;;;;-2.47;63.30;100127.41;4960453;28;20038;-68
2024/01/05 05:20:49;;;;;;;6.45;4.00;;;;;;;-2.63;63.11;100116.31;4954281;28;20038;-67
2024/01/05 05:23:29;;;;;;;10.93;3.45;;;;;;;-2.47;63.09;100109.50;4958477;28;20710;-67
2024/01/05 05:25:57;;;;;;;6.65;3.35;;;;;;;-2.61;63.38;100111.22;4973481;28;20653;-69
2024/01/05 05:28:27;;;;;;;6.65;2.90;;;;;;;-2.25;62.68;100111.22;4956354;28;20127;-69
2024/01/05 05:31:15;;;;;;;;;;;;;;;;;;;;;
2024/01/05 05:33:41;;;;;;;8.18;4.00;;;;;;;-2.26;62.40;100104.44;4958818;28;20065;-67
2024/01/05 05:36:11;;;;;;;9.52;4.57;;;;;;;-2.19;62.51;100099.31;4951173;28;20412;-70
2024/01/05 05:38:39;;;;;;;7.97;3.63;;;;;;;-2.13;62.35;100109.56;4965472;28;20481;-69
2024/01/05 05:41:12;;;;;;;10.13;4.47;;;;;;;-2.17;62.21;100118.09;4962294;28;20118;-66
2024/01/05 05:43:41;;;;;;;10.32;4.07;;;;;;;-2.51;63.09;100112.94;4965166;28;20038;-65
2024/01/05 05:46:12;;;;;;;7.20;3.78;;;;;;;-2.61;63.18;100117.16;4984090;28;20049;-67
2024/01/05 05:48:42;;;;;;;13.63;4.63;;;;;;;-2.31;62.96;100111.25;4959113;28;20042;-70
2024/01/05 05:51:17;;;;;;;;;;;;;;;;;;;;;
2024/01/05 05:53:56;;;;;;;8.55;4.13;;;;;;;-2.24;62.90;100104.44;4955162;28;20403;-66
2024/01/05 05:56:21;;;;;;;9.50;3.47;;;;;;;-2.39;63.00;100106.97;4962066;28;20460;-69
2024/01/05 05:59:12;;;;;;;8.55;4.10;;;;;;;-2.48;63.66;100093.31;4952680;28;20082;-66
2024/01/05 06:01:48;;;;;;;9.85;3.90;;;;;;;-2.47;63.33;100078.81;4953463;28;20061;-66
2024/01/05 06:04:28;;;;;;;9.27;4.28;;;;;;;-2.43;63.43;100091.59;4944373;28;20052;-65
2024/01/05 06:06:54;;;;;;;8.63;3.65;;;;;;;-2.45;63.14;100087.34;4986266;28;20598;-66
2024/01/05 06:09:33;;;;;;;18.83;5.30;;;;;;;-2.58;63.79;100089.03;4935546;28;20046;-65
2024/01/05 06:11:58;;;;;;;11.70;4.10;;;;;;;-2.45;63.75;100083.09;4966829;28;20046;-66
2024/01/05 06:14:47;;;;;;;7.82;3.60;;;;;;;-2.22;62.85;100080.53;4959731;28;20165;-65
2024/01/05 06:17:19;;;;;;;;;;;;;;;-2.27;63.20;100074.56;4966769;28;20121;-64
2024/01/05 06:19:57;;;;;;;9.63;3.75;;;;;;;-2.22;63.30;100083.09;4964386;28;20018;-66
2024/01/05 06:22:24;;;;;;;10.23;3.65;;;;;;;-2.38;63.03;100076.28;4969592;28;20036;-66
2024/01/05 06:24:53;;;;;;;9.43;4.35;;;;;;;-2.14;62.90;100080.53;4947128;28;20052;-66
2024/01/05 06:27:21;;;;;;;11.15;3.65;;;;;;;-2.13;62.78;100071.16;4959958;28;20081;-64
2024/01/05 06:30:01;;;;;;;9.32;5.45;;;;;;;-2.27;63.32;100076.25;4955295;28;20201;-65
2024/01/05 06:32:31;;;;;;;9.13;3.88;;;;;;;-2.50;63.86;100081.38;4969532;28;20053;-65
2024/01/05 06:35:01;;;;;;;10.27;4.35;;;;;;;-2.23;63.25;100081.38;4955613;28;20066;-64
2024/01/05 06:37:32;;;;;;;9.25;4.82;;;;;;;-2.51;63.85;100067.72;4970363;28;20050;-64
2024/01/05 06:40:08;;;;;;;6.00;2.27;;;;;;;-2.48;63.88;100061.75;4960611;28;20533;-64
2024/01/05 06:42:44;;;;;;;7.72;4.20;;;;;;;-2.51;64.38;100066.88;4952037;28;20153;-64
2024/01/05 06:45:19;;;;;;;11.85;4.47;;;;;;;-2.47;63.92;100064.31;4945286;28;20085;-67
2024/01/05 06:47:52;;;;;;;9.80;4.60;;;;;;;-2.56;64.68;100063.44;4974304;28;20877;-66
2024/01/05 06:50:27;;;;;;;8.70;3.97;;;;;;;-2.43;63.93;100070.28;4958478;28;20084;-64
2024/01/05 06:53:07;;;;;;;7.22;3.30;;;;;;;-2.34;63.63;100080.53;4965633;28;20039;-65
2024/01/05 06:55:37;;;;;;;5.95;2.70;;;;;;;-2.55;64.55;100085.63;4953688;28;20038;-65
2024/01/05 06:58:08;;;;;;;15.52;4.80;;;;;;;-2.53;64.02;100092.47;4956258;28;20039;-67
2024/01/05 07:00:37;;;;;;;10.35;4.32;;;;;;;-2.59;64.42;100096.72;4959785;28;20061;-65
2024/01/05 07:03:05;;;;;;;8.98;3.92;;;;;;;-2.56;64.41;100089.88;4960949;28;20042;-65
2024/01/05 07:05:57;;;;;;;8.00;4.10;;;;;;;-2.31;63.90;100080.53;4952542;28;20277;-65
2024/01/05 07:08:28;;;;;;;9.10;4.50;;;;;;;-2.33;63.67;100077.13;4952957;28;20104;-64
2024/01/05 07:11:10;;;;;;;7.90;3.80;;;;;;;-2.40;63.77;100070.31;4949808;28;20085;-65
2024/01/05 07:13:35;;;;;;;9.02;3.97;;;;;;;-2.56;64.41;100074.53;4949885;28;20508;-67
2024/01/05 07:16:27;;;;;;;9.50;4.68;;;;;;;-2.45;64.34;100077.09;4976336;28;20164;-68
2024/01/05 07:18:54;;;;;;;10.57;4.70;;;;;;;-2.39;64.03;100073.72;4963200;28;20046;-64
2024/01/05 07:21:48;;;;;;;7.88;3.95;;;;;;;-2.19;63.86;100073.72;4980391;28;20435;-67
2024/01/05 07:24:23;;;;;;;9.80;3.88;;;;;;;-1.99;62.96;100066.88;4956095;28;20531;-66
2024/01/05 07:27:04;;;;;;;;;;;;;;;;;;;;;
2024/01/05 07:29:37;;;;;;;9.20;4.47;;;;;;;-2.27;63.92;100060.91;4949703;28;20623;-66
2024/01/05 07:32:07;;;;;;;7.45;3.92;;;;;;;-2.34;64.04;100070.28;4958863;28;20325;-68
2024/01/05 07:34:37;;;;;;;7.13;3.47;;;;;;;-2.27;63.96;100060.91;4954338;28;20576;-65
2024/01/05 07:37:17;;;;;;;11.52;5.07;;;;;;;-2.26;63.64;100067.75;4967187;28;20921;-67
2024/01/05 07:39:52;;;;;;;8.63;3.97;;;;;;;-2.16;63.38;100061.75;4951313;28;20475;-66
2024/01/05 07:45:09;;;;;;;8.18;3.40;;;;;;;-2.23;63.98;100063.44;4968545;28;20355;-68
2024/01/05 07:47:40;;;;;;;8.93;4.28;;;;;;;-2.43;64.33;100065.16;4958761;28;20030;-67
2024/01/05 07:50:18;;;;;;;5.82;3.47;;;;;;;-2.52;64.43;100055.78;4957066;28;20453;-66
2024/01/05 07:52:51;;;;;;;7.45;3.72;;;;;;;-2.33;64.09;100055.81;4954595;28;20535;-64
2024/01/05 07:55:24;;;;;;;9.77;4.25;;;;;;;-2.32;64.40;100052.38;4943987;28;20579;-67
2024/01/05 07:58:02;;;;;;;9.88;4.22;;;;;;;-2.44;64.13;100058.34;4960244;28;20176;-68
2024/01/05 08:00:55;;;;;;;10.63;4.15;;;;;;;-2.39;64.57;100051.53;4954617;28;20463;-68
2024/01/05 08:03:21;;;;;;;9.40;3.92;;;;;;;-2.13;63.81;100048.13;4956881;28;20508;-66
2024/01/05 08:05:49;;;;;;;6.93;3.75;;;;;;;-2.41;64.21;100048.09;4954900;28;20045;-67
2024/01/05 08:08:18;;;;;;;10.60;3.70;;;;;;;-2.04;63.57;100045.53;4955484;28;20058;-67
2024/01/05 08:11:05;;;;;;;7.55;3.50;;;;;;;-2.22;63.98;100034.47;4955514;28;20100;-66
2024/01/05 08:13:33;;;;;;;7.43;2.80;;;;;;;-1.91;62.95;100034.41;4959567;28;20049;-66
2024/01/05 08:16:11;;;;;;;10.02;4.00;;;;;;;-2.10;63.72;100025.06;4972513;28;20394;-67
2024/01/05 08:18:42;;;;;;;8.40;3.40;;;;;;;-2.22;63.73;100019.09;4949478;28;20077;-67
2024/01/05 08:21:13;;;;;;;8.52;4.30;;;;;;;-2.35;64.18;100019.97;4967812;28;20074;-67
2024/01/05 08:23:49;;;;;;;8.13;3.78;;;;;;;-2.39;64.13;100009.72;4830008;28;22232;-66
2024/01/05 08:26:28;;;;;;;12.35;4.15;;;;;;;-2.09;63.76;100013.94;4943429;28;20521;-67
2024/01/05 08:28:53;;;;;;;7.75;3.80;;;;;;;-2.29;64.03;100004.59;4957277;28;20449;-66
2024/01/05 08:31:32;;;;;;;8.13;3.38;;;;;;;-2.44;64.51;100008.00;4972799;28;20115;-65
2024/01/05 08:34:07;;;;;;;8.50;3.30;;;;;;;-2.37;64.64;100013.13;4945641;28;20528;-65
2024/01/05 08:36:40;;;;;;;7.82;3.28;;;;;;;-2.47;64.99;100007.16;4955099;28;20295;-66
2024/01/05 08:39:13;;;;;;;6.85;3.30;;;;;;;-2.36;64.35;99999.47;4947857;28;20064;-66
2024/01/05 08:41:49;;;;;;;8.88;3.78;;;;;;;-2.31;64.16;100003.75;4964721;28;20400;-64
2024/01/05 08:44:18;;;;;;;7.65;3.10;;;;;;;-2.06;63.74;99998.59;4959111;28;20452;-66
2024/01/05 08:46:55;;;;;;;7.63;2.97;;;;;;;-2.27;64.34;99990.09;4964605;28;20049;-68
2024/01/05 08:49:42;;;;;;;5.28;2.97;;;;;;;-2.19;64.50;100007.16;4935787;28;20092;-66
2024/01/05 08:52:08;;;;;;;7.10;3.37;;;;;;;-2.20;64.50;100006.31;4963406;28;20038;-66
2024/01/05 08:54:42;;;;;;;8.77;3.45;;;;;;;-2.12;64.08;100016.53;4957481;28;21287;-67
2024/01/05 08:57:11;;;;;;;8.65;2.65;;;;;;;-2.06;63.92;100008.84;4973698;28;20049;-66
2024/01/05 08:59:43;;;;;;;4.97;3.03;;;;;;;-2.19;63.91;100007.16;4954139;28;20049;-65
2024/01/05 09:02:14;;;;;;;6.30;3.15;;;;;;;-2.24;64.02;100023.38;4957085;28;20034;-65
2024/01/05 09:04:49;;;;;;;7.93;3.07;;;;;;;-2.11;63.96;100018.22;4954809;28;20065;-64
2024/01/05 09:07:14;;;;;;;8.38;3.85;;;;;;;-2.54;65.53;100020.81;4980856;28;20038;-66
2024/01/05 09:09:55;;;;;;;8.35;3.60;;;;;;;-2.21;64.75;100019.94;4954598;28;20053;-66
2024/01/05 09:12:27;;;;;;;5.75;3.53;;;;;;;-2.26;64.86;100029.34;4945813;28;20069;-65
2024/01/05 09:14:56;;;;;;;6.47;3.55;;;;;;;-2.64;65.81;100017.41;4949311;28;20037;-65
2024/01/05 09:17:42;;;;;;;6.40;2.58;;;;;;;-2.18;64.60;100017.38;4950292;28;20046;-64
2024/01/05 09:20:20;;;;;;;6.30;2.90;;;;;;;-2.36;64.87;99999.47;4965528;28;20053;-65
2024/01/05 09:22:53;;;;;;;4.93;3.05;;;;;;;-2.26;65.42;100017.38;4968334;28;20790;-66
2024/01/05 09:25:26;;;;;;;5.93;3.15;;;;;;;-2.23;65.13;100013.97;4956464;28;20042;-64
2024/01/05 09:27:57;;;;;;;3.92;2.35;;;;;;;-2.18;64.91;100008.84;4952830;28;20026;-65
2024/01/05 09:30:40;;;;;;;4.32;2.67;;;;;;;-2.14;64.95;100010.53;4975002;28;20668;-66
2024/01/05 09:33:15;;;;;;;;;;;;;;;-2.48;65.56;100010.56;4977293;28;20097;-66
2024/01/05 09:35:51;;;;;;;4.65;1.67;;;;;;;-2.51;65.52;100011.44;4978633;28;19991;-65
2024/01/05 09:38:21;;;;;;;5.03;2.63;;;;;;;-2.29;65.70;100009.72;4959949;28;20449;-66
2024/01/05 09:40:54;;;;;;;5.88;2.08;;;;;;;-2.40;66.09;100011.44;4973628;28;20530;-68
2024/01/05 09:43:28;;;;;;;5.93;1.60;;;;;;;-2.15;65.07;100003.72;4965071;28;20026;-66
2024/01/05 09:46:15;;;;;;;;;;;;;;;;;;;;;
2024/01/05 09:49:03;;;;;;;6.10;2.28;;;;;;;-1.99;64.82;100005.41;4941601;28;21163;-66
2024/01/05 09:51:46;;;;;;;6.05;1.70;;;;;;;-2.16;65.08;99999.44;4960091;28;20043;-66
2024/01/05 09:54:13;;;;;;;4.82;2.10;;;;;;;-1.96;64.69;99999.41;4952070;28;20045;-66
2024/01/05 09:56:49;;;;;;;3.88;2.15;;;;;;;-1.95;64.76;100001.97;4947240;28;20117;-65
2024/01/05 09:59:26;;;;;;;5.63;1.98;;;;;;;-1.87;64.28;100001.94;4989384;28;20053;-66
2024/01/05 10:02:11;;;;;;;5.07;2.17;;;;;;;-2.21;65.63;100000.31;4963091;28;20948;-66
2024/01/05 10:04:43;;;;;;;6.07;1.60;;;;;;;-2.33;65.50;100000.34;4958777;28;20046;-65
2024/01/05 10:07:15;;;;;;;4.88;1.67;;;;;;;-2.03;65.04;99990.88;4959802;28;20033;-69
2024/01/05 10:09:53;;;;;;;3.90;1.33;;;;;;;-2.02;64.80;99990.91;4972668;28;20105;-66
2024/01/05 10:12:23;;;;;;;4.50;2.03;;;;;;;-1.71;64.29;99992.50;4976896;28;20062;-65
2024/01/05 10:15:14;;;;;;;3.67;1.83;;;;;;;-1.73;64.09;99991.66;4945701;28;20149;-67
2024/01/05 10:17:47;;;;;;;3.65;1.70;;;;;;;-1.67;63.72;99986.50;4954037;28;20707;-65
2024/01/05 10:20:27;;;;;;;5.30;1.35;;;;;;;-1.69;63.87;99990.78;4973765;28;20157;-65
2024/01/05 10:22:52;;;;;;;2.55;1.58;;;;;;;-1.96;64.64;99992.56;4962488;28;20621;-66
2024/01/05 10:25:26;;;;;;;4.70;2.53;;;;;;;-1.68;64.16;99990.78;4972241;28;20069;-65
2024/01/05 10:27:56;;;;;;;2.00;1.13;;;;;;;-1.42;63.48;99983.00;4956790;28;20528;-66
2024/01/05 10:30:30;;;;;;;8.65;2.60;;;;;;;-1.49;62.98;99986.44;4968038;28;20069;-66
2024/01/05 10:33:16;;;;;;;6.57;1.95;;;;;;;-2.03;64.77;99980.66;4962456;28;20675;-66
2024/01/05 10:35:45;;;;;;;5.97;1.95;;;;;;;-1.99;64.91;99984.91;4954063;28;20122;-64
2024/01/05 10:38:21;;;;;;;3.67;2.05;;;;;;;-1.70;63.83;99966.03;4963157;28;20111;-65
2024/01/05 10:41:14;;;;;;;4.20;1.75;;;;;;;-2.00;64.70;99975.50;4960028;28;20042;-66
2024/01/05 10:43:46;;;;;;;4.43;1.92;;;;;;;-1.71;64.10;99972.00;4956537;28;20118;-64
2024/01/05 10:46:24;;;;;;;2.63;1.65;;;;;;;-1.48;63.48;99988.16;4968669;28;20828;-66
2024/01/05 10:48:53;;;;;;;9.00;2.78;;;;;;;-1.58;63.89;100001.84;4944810;28;20118;-66
2024/01/05 10:51:35;;;;;;;2.70;1.40;;;;;;;-1.40;63.33;99998.34;4962862;28;20659;-65
2024/01/05 10:54:07;;;;;;;6.32;2.17;;;;;;;-1.43;63.05;100001.78;4961949;28;20042;-65
2024/01/05 10:56:42;;;;;;;5.70;1.50;;;;;;;-1.20;62.46;99998.25;4968229;28;20041;-65
2024/01/05 10:59:10;;;;;;;7.15;2.15;;;;;;;-1.12;62.43;99991.38;4929069;28;20075;-66
2024/01/05 11:01:37;;;;;;;6.00;2.65;;;;;;;-1.53;63.41;99997.59;4965952;28;20045;-65
2024/01/05 11:04:24;;;;;;;;;;;;;;;;;;;;;
2024/01/05 11:07:02;;;;;;;3.33;1.67;;;;;;;-1.44;63.59;99984.72;4965823;28;20077;-65
2024/01/05 11:09:51;;;;;;;2.70;1.80;;;;;;;-1.81;64.41;99984.00;4954867;28;20142;-66
2024/01/05 11:12:38;;;;;;;4.68;2.13;;;;;;;-1.77;64.42;99982.31;4955594;28;20034;-67
2024/01/05 11:15:30;;;;;;;3.95;2.00;;;;;;;-1.93;64.07;99986.59;4968407;28;20688;-65
2024/01/05 11:18:14;;;;;;;3.70;1.92;;;;;;;-1.73;64.50;99978.84;4958980;28;20069;-64
2024/01/05 11:21:02;;;;;;;9.75;2.15;;;;;;;-1.68;64.18;99969.44;4968854;28;20049;-64
2024/01/05 11:23:33;;;;;;;3.67;1.38;;;;;;;-1.89;64.97;99975.47;4964290;28;20652;-64
2024/01/05 11:26:44;;;;;;;;;;;;;;;;;;;;;
2024/01/05 11:29:45;;;;;;;5.05;1.92;;;;;;;-2.13;65.56;99978.97;4928690;28;20108;-64
2024/01/05 11:32:42;;;;;;;2.67;1.40;;;;;;;-2.17;65.44;99967.03;4965462;28;20022;-64
2024/01/05 11:35:20;;;;;;;7.00;1.40;;;;;;;-1.88;64.86;99962.69;4946224;28;20125;-66
2024/01/05 11:38:07;;;;;;;7.68;2.80;;;;;;;-2.11;66.25;99967.00;4958269;28;20134;-67
2024/01/05 11:40:41;;;;;;;4.88;1.90;;;;;;;-2.06;65.91;99955.06;4978642;28;20615;-67
2024/01/05 11:43:45;;;;;;;3.50;1.42;;;;;;;-2.09;65.98;99942.25;4956633;28;20329;-66
2024/01/05 11:46:13;;;;;;;9.68;1.92;;;;;;;-2.25;66.34;99947.41;4948136;28;20768;-67
2024/01/05 11:49:02;;;;;;;3.33;1.52;;;;;;;-2.15;65.80;99947.41;4955059;28;20038;-67
2024/01/05 11:51:35;;;;;;;4.63;1.88;;;;;;;-2.02;65.86;99939.69;4973799;28;20126;-65
2024/01/05 11:54:18;;;;;;;4.07;2.33;;;;;;;-1.69;64.60;99934.41;4957022;28;21685;-68
2024/01/05 11:56:57;;;;;;;4.65;2.10;;;;;;;-1.77;64.84;99949.00;4952982;28;20042;-66
2024/01/05 11:59:35;;;;;;;6.13;2.78;;;;;;;-1.76;64.84;99940.44;4959030;28;20044;-67
2024/01/05 12:02:13;;;;;;;;;;;;;;;;;;;;;
2024/01/05 12:04:51;;;;;;;4.30;1.52;;;;;;;-1.91;65.36;99931.97;4961570;28;20594;-66
2024/01/05 12:07:23;;;;;;;4.63;1.67;;;;;;;-1.71;64.98;99929.31;4973907;28;20053;-66
2024/01/05 12:10:28;;;;;;;5.15;2.47;;;;;;;-1.75;65.12;99937.03;4954113;28;20147;-66
2024/01/05 12:13:09;;;;;;;5.88;1.88;;;;;;;-1.82;65.19;99937.06;4956067;28;20065;-67
2024/01/05 12:15:55;;;;;;;6.57;1.48;;;;;;;-1.69;64.81;99937.81;4947600;28;20101;-67
2024/01/05 12:18:51;;;;;;;;;;;;;;;;;;;;;
2024/01/05 12:21:21;;;;;;;3.35;1.67;;;;;;;-1.82;65.28;99933.66;4952433;28;20621;-64
2024/01/05 12:23:59;;;;;;;5.18;1.20;;;;;;;-1.82;65.30;99931.94;4952288;28;20053;-67
2024/01/05 12:26:29;;;;;;;3.75;1.30;;;;;;;-1.57;64.64;99925.84;4958981;28;20042;-66
2024/01/05 12:29:08;;;;;;;;;;;;;;;;;;;;;
2024/01/05 12:31:44;;;;;;;6.45;1.80;;;;;;;-1.86;64.91;99934.50;4983069;28;20089;-66